| time (UTC) | temp F | wind direction | speed MPH | gust MPH | rain 1hr in | rain 24hr in | rain mn in | humidity % | barometer mb |
| 20260510020915 | 55 | 167 | 3.0 | 3.0 | 0.00 | 0.70 | 0.70 | 96 | 1008.4 |
| 20260510020410 | 55 | 338 | 0.0 | 0.0 | 0.05 | 0.70 | 0.70 | 96 | 1008.6 |
| 20260510015906 | 55 | 358 | 0.0 | 0.0 | 0.05 | 0.70 | 0.70 | 96 | 1008.3 |
| 20260510015402 | 55 | 130 | 3.0 | 3.0 | 0.00 | 0.69 | 0.69 | 96 | 1008.3 |
| 20260510014857 | 55 | 329 | 1.0 | 1.0 | 0.00 | 0.69 | 0.69 | 96 | 1008.8 |
| 20260510014355 | 55 | 312 | 1.0 | 1.0 | 0.07 | 0.69 | 0.69 | 96 | 1008.6 |
| 20260510013851 | 54 | 117 | 1.0 | 2.0 | 0.07 | 0.69 | 0.69 | 95 | 1008.3 |
| 20260510013347 | 54 | 202 | 1.0 | 2.0 | 0.17 | 0.68 | 0.68 | 95 | 1008.5 |
| 20260510012841 | 54 | 322 | 0.0 | 0.0 | 0.31 | 0.68 | 0.68 | 95 | 1008.3 |
| 20260510012336 | 54 | 300 | 3.0 | 3.0 | 0.19 | 0.65 | 0.65 | 95 | 1008.8 |
| 20260510011831 | 54 | 339 | 1.0 | 1.0 | 0.17 | 0.63 | 0.63 | 95 | 1008.9 |
| 20260510011326 | 54 | 342 | 0.0 | 1.0 | 0.19 | 0.62 | 0.62 | 94 | 1008.6 |
| 20260510010823 | 54 | 338 | 3.0 | 3.0 | 0.24 | 0.60 | 0.60 | 94 | 1008.5 |
| 20260510010321 | 55 | 11 | 2.0 | 3.0 | 0.35 | 0.59 | 0.59 | 93 | 1008.7 |
| 20260510005817 | 55 | 296 | 2.0 | 3.0 | 0.47 | 0.57 | 0.57 | 93 | 1008.5 |
| 20260510005313 | 55 | 356 | 2.0 | 2.0 | 1.21 | 0.53 | 0.53 | 92 | 1008.5 |
| 20260510004811 | 56 | 264 | 5.0 | 6.0 | 0.94 | 0.48 | 0.48 | 89 | 1008.5 |
| 20260510004308 | 59 | 332 | 5.0 | 7.0 | 0.12 | 0.34 | 0.34 | 81 | 1008.3 |
| 20260510003806 | 64 | 254 | 5.0 | 8.0 | 0.00 | 0.32 | 0.32 | 67 | 1008.4 |
| 20260510003303 | 65 | 1 | 2.0 | 2.0 | 0.00 | 0.32 | 0.32 | 61 | 1007.0 |
| 20260510002801 | 65 | 218 | 0.0 | 0.0 | 0.00 | 0.32 | 0.32 | 60 | 1006.5 |
| 20260510002259 | 65 | 175 | 3.0 | 3.0 | 0.00 | 0.32 | 0.32 | 59 | 1006.4 |
| 20260510001755 | 65 | 201 | 1.0 | 2.0 | 0.00 | 0.32 | 0.32 | 58 | 1006.2 |
| 20260510001253 | 65 | 154 | 5.0 | 6.0 | 0.00 | 0.32 | 0.32 | 58 | 1006.2 |
| 20260510000749 | 66 | 157 | 2.0 | 2.0 | 0.00 | 0.32 | 0.32 | 58 | 1006.2 |
| 20260510000248 | 66 | 180 | 3.0 | 3.0 | 0.00 | 0.32 | 0.32 | 57 | 1006.0 |
| 20260509235744 | 66 | 122 | 2.0 | 2.0 | 0.00 | 0.32 | 0.32 | 57 | 1006.0 |
| 20260509235240 | 66 | 230 | 4.0 | 6.0 | 0.00 | 0.32 | 0.32 | 57 | 1005.7 |
| 20260509234736 | 66 | 195 | 3.0 | 5.0 | 0.00 | 0.32 | 0.32 | 57 | 1005.8 |
| 20260509234233 | 66 | 167 | 3.0 | 3.0 | 0.00 | 0.32 | 0.32 | 57 | 1005.8 |
| 20260509233731 | 66 | 87 | 2.0 | 2.0 | 0.00 | 0.32 | 0.32 | 57 | 1005.6 |
| 20260509233228 | 66 | 181 | 2.0 | 2.0 | 0.00 | 0.32 | 0.32 | 57 | 1005.8 |
| 20260509232724 | 66 | 168 | 3.0 | 5.0 | 0.00 | 0.32 | 0.32 | 57 | 1005.8 |
| 20260509232222 | 67 | 173 | 1.0 | 2.0 | 0.00 | 0.32 | 0.32 | 56 | 1005.6 |
| 20260509231718 | 67 | 232 | 2.0 | 3.0 | 0.00 | 0.32 | 0.32 | 56 | 1005.5 |
| 20260509231215 | 67 | 161 | 3.0 | 5.0 | 0.00 | 0.32 | 0.32 | 55 | 1005.5 |
| 20260509230713 | 67 | 143 | 3.0 | 5.0 | 0.00 | 0.32 | 0.32 | 56 | 1005.2 |
| 20260509230209 | 68 | 191 | 3.0 | 3.0 | 0.00 | 0.32 | 0.32 | 55 | 1005.3 |
| 20260509225705 | 69 | 222 | 3.0 | 5.0 | 0.00 | 0.32 | 0.32 | 53 | 1005.5 |
| 20260509225200 | 69 | 274 | 2.0 | 3.0 | 0.00 | 0.32 | 0.32 | 54 | 1005.4 |
| 20260509224657 | 69 | 184 | 5.0 | 6.0 | 0.00 | 0.32 | 0.32 | 53 | 1005.5 |
| 20260509224154 | 69 | 283 | 2.0 | 2.0 | 0.00 | 0.32 | 0.32 | 52 | 1005.5 |
| 20260509223651 | 69 | 267 | 3.0 | 3.0 | 0.00 | 0.32 | 0.32 | 52 | 1005.5 |
| 20260509223148 | 69 | 305 | 4.0 | 6.0 | 0.00 | 0.32 | 0.32 | 52 | 1005.7 |
| 20260509222645 | 69 | 239 | 9.0 | 11.0 | 0.00 | 0.32 | 0.32 | 52 | 1005.5 |
| 20260509222140 | 69 | 239 | 3.0 | 5.0 | 0.00 | 0.32 | 0.32 | 52 | 1005.7 |
| 20260509221636 | 69 | 248 | 0.0 | 1.0 | 0.00 | 0.32 | 0.32 | 53 | 1005.4 |
| 20260509221132 | 69 | 264 | 3.0 | 5.0 | 0.00 | 0.32 | 0.32 | 53 | 1005.2 |
| 20260509220628 | 69 | 186 | 4.0 | 6.0 | 0.00 | 0.32 | 0.32 | 52 | 1005.6 |
| 20260509220124 | 69 | 193 | 5.0 | 6.0 | 0.00 | 0.32 | 0.32 | 52 | 1005.5 |
| 20260509215620 | 69 | 164 | 5.0 | 6.0 | 0.00 | 0.32 | 0.32 | 51 | 1005.6 |
| 20260509215117 | 69 | 170 | 5.0 | 6.0 | 0.00 | 0.32 | 0.32 | 52 | 1005.6 |
| 20260509214614 | 69 | 215 | 5.0 | 7.0 | 0.00 | 0.32 | 0.32 | 51 | 1005.5 |
| 20260509214111 | 69 | 288 | 5.0 | 7.0 | 0.00 | 0.32 | 0.32 | 52 | 1005.7 |
| 20260509213607 | 69 | 301 | 4.0 | 5.0 | 0.00 | 0.32 | 0.32 | 52 | 1005.7 |
| 20260509213104 | 69 | 336 | 3.0 | 5.0 | 0.00 | 0.32 | 0.32 | 53 | 1005.8 |
| 20260509212601 | 69 | 278 | 1.0 | 1.0 | 0.00 | 0.32 | 0.32 | 54 | 1005.6 |
| 20260509212058 | 69 | 201 | 4.0 | 6.0 | 0.00 | 0.32 | 0.32 | 53 | 1005.9 |
| 20260509211554 | 68 | 183 | 5.0 | 7.0 | 0.00 | 0.32 | 0.32 | 53 | 1005.7 |
| 20260509211050 | 69 | 229 | 3.0 | 3.0 | 0.00 | 0.32 | 0.32 | 53 | 1005.7 |
| 20260509210548 | 68 | 180 | 5.0 | 6.0 | 0.00 | 0.32 | 0.32 | 54 | 1005.7 |
| 20260509210044 | 69 | 183 | 8.0 | 11.0 | 0.00 | 0.32 | 0.32 | 53 | 1005.7 |
| 20260509205538 | 69 | 233 | 4.0 | 5.0 | 0.00 | 0.32 | 0.32 | 54 | 1005.7 |
| 20260509205033 | 69 | 319 | 4.0 | 6.0 | 0.00 | 0.32 | 0.32 | 54 | 1005.9 |
| 20260509204530 | 69 | 190 | 4.0 | 5.0 | 0.00 | 0.32 | 0.32 | 54 | 1006.1 |
| 20260509204026 | 67 | 228 | 5.0 | 6.0 | 0.00 | 0.32 | 0.32 | 56 | 1006.1 |
| 20260509203522 | 67 | 112 | 4.0 | 6.0 | 0.00 | 0.32 | 0.32 | 56 | 1006.3 |
| 20260509203021 | 69 | 166 | 5.0 | 7.0 | 0.00 | 0.32 | 0.32 | 55 | 1006.3 |
| 20260509202515 | 68 | 276 | 2.0 | 2.0 | 0.00 | 0.32 | 0.32 | 56 | 1006.1 |
| 20260509202011 | 68 | 231 | 3.0 | 5.0 | 0.00 | 0.32 | 0.32 | 57 | 1006.1 |
| 20260509201506 | 68 | 260 | 1.0 | 2.0 | 0.00 | 0.32 | 0.32 | 58 | 1006.4 |
| 20260509201004 | 68 | 185 | 8.0 | 9.0 | 0.00 | 0.32 | 0.32 | 57 | 1006.5 |
| 20260509200458 | 68 | 161 | 4.0 | 6.0 | 0.00 | 0.32 | 0.32 | 56 | 1006.7 |
| 20260509195955 | 68 | 240 | 3.0 | 5.0 | 0.00 | 0.32 | 0.32 | 58 | 1006.8 |
| 20260509195450 | 68 | 290 | 5.0 | 7.0 | 0.00 | 0.32 | 0.32 | 57 | 1006.8 |
| 20260509194950 | 68 | 131 | 5.0 | 6.0 | 0.00 | 0.32 | 0.32 | 57 | 1006.6 |
| 20260509194446 | 68 | 263 | 1.0 | 2.0 | 0.00 | 0.32 | 0.32 | 60 | 1006.8 |
| 20260509193943 | 68 | 208 | 3.0 | 3.0 | 0.00 | 0.32 | 0.32 | 60 | 1006.7 |
| 20260509193443 | 66 | 230 | 2.0 | 2.0 | 0.00 | 0.32 | 0.32 | 62 | 1007.0 |
| 20260509192939 | 66 | 153 | 3.0 | 3.0 | 0.00 | 0.32 | 0.32 | 62 | 1007.0 |
| 20260509192436 | 65 | 299 | 1.0 | 1.0 | 0.00 | 0.32 | 0.32 | 65 | 1007.4 |
| 20260509191931 | 64 | 243 | 1.0 | 2.0 | 0.00 | 0.32 | 0.32 | 66 | 1007.4 |
| 20260509191426 | 66 | 258 | 3.0 | 5.0 | 0.00 | 0.32 | 0.32 | 64 | 1007.3 |
| 20260509190923 | 64 | 244 | 2.0 | 2.0 | 0.00 | 0.32 | 0.32 | 65 | 1007.1 |
| 20260509190420 | 66 | 325 | 2.0 | 2.0 | 0.00 | 0.32 | 0.32 | 64 | 1007.1 |
| 20260509185918 | 64 | 190 | 1.0 | 3.0 | 0.00 | 0.32 | 0.32 | 66 | 1007.4 |
| 20260509185415 | 63 | 269 | 3.0 | 3.0 | 0.00 | 0.32 | 0.32 | 68 | 1007.5 |
| 20260509184911 | 64 | 189 | 2.0 | 2.0 | 0.00 | 0.32 | 0.32 | 67 | 1007.5 |
| 20260509184409 | 64 | 323 | 2.0 | 2.0 | 0.00 | 0.32 | 0.32 | 66 | 1007.6 |
| 20260509183905 | 64 | 207 | 3.0 | 5.0 | 0.00 | 0.32 | 0.32 | 67 | 1007.6 |
| 20260509183359 | 63 | 205 | 3.0 | 6.0 | 0.00 | 0.32 | 0.32 | 69 | 1007.6 |
| 20260509182856 | 63 | 246 | 1.0 | 3.0 | 0.00 | 0.32 | 0.32 | 68 | 1007.8 |
| 20260509182353 | 63 | 308 | 2.0 | 2.0 | 0.00 | 0.32 | 0.32 | 68 | 1007.5 |
| 20260509181851 | 64 | 200 | 3.0 | 3.0 | 0.00 | 0.32 | 0.32 | 68 | 1007.6 |
| 20260509181348 | 63 | 231 | 4.0 | 6.0 | 0.00 | 0.32 | 0.32 | 70 | 1007.3 |
| 20260509180845 | 63 | 68 | 4.0 | 7.0 | 0.07 | 0.32 | 0.32 | 71 | 1007.5 |
| 20260509180340 | 62 | 175 | 6.0 | 7.0 | 0.07 | 0.32 | 0.32 | 71 | 1007.5 |
| 20260509175838 | 64 | 151 | 5.0 | 8.0 | 0.00 | 0.31 | 0.31 | 70 | 1007.7 |
| 20260509175334 | 62 | 200 | 5.0 | 7.0 | 0.00 | 0.31 | 0.31 | 73 | 1007.6 |
| 20260509174830 | 62 | 341 | 3.0 | 5.0 | 0.00 | 0.31 | 0.31 | 72 | 1007.7 |
| 20260509174326 | 62 | 261 | 3.0 | 5.0 | 0.00 | 0.31 | 0.31 | 73 | 1007.7 |
| 20260509173822 | 62 | 252 | 3.0 | 3.0 | 0.00 | 0.31 | 0.31 | 72 | 1007.6 |
| 20260509173317 | 62 | 203 | 5.0 | 6.0 | 0.00 | 0.31 | 0.31 | 73 | 1007.8 |
| 20260509172814 | 62 | 286 | 2.0 | 2.0 | 0.00 | 0.31 | 0.31 | 75 | 1007.8 |
| 20260509172311 | 62 | 308 | 2.0 | 3.0 | 0.00 | 0.31 | 0.31 | 75 | 1007.9 |
| 20260509171806 | 61 | 271 | 4.0 | 5.0 | 0.00 | 0.31 | 0.31 | 77 | 1007.7 |
| 20260509171302 | 60 | 272 | 2.0 | 2.0 | 0.00 | 0.31 | 0.31 | 78 | 1007.7 |
| 20260509170758 | 60 | 194 | 4.0 | 6.0 | 0.00 | 0.31 | 0.31 | 78 | 1007.9 |
| 20260509170249 | 60 | 353 | 3.0 | 3.0 | 0.00 | 0.31 | 0.31 | 78 | 1007.9 |
| 20260509165748 | 60 | 269 | 3.0 | 3.0 | 0.00 | 0.31 | 0.31 | 78 | 1007.9 |
| 20260509165244 | 59 | 138 | 5.0 | 7.0 | 0.00 | 0.31 | 0.31 | 78 | 1008.0 |
| 20260509164740 | 59 | 134 | 4.0 | 7.0 | 0.00 | 0.31 | 0.31 | 79 | 1007.9 |
| 20260509164236 | 59 | 311 | 3.0 | 5.0 | 0.00 | 0.31 | 0.31 | 82 | 1007.9 |
| 20260509163733 | 58 | 276 | 2.0 | 2.0 | 0.00 | 0.31 | 0.31 | 83 | 1008.0 |
| 20260509163229 | 58 | 273 | 2.0 | 3.0 | 0.00 | 0.31 | 0.31 | 83 | 1008.0 |
| 20260509162728 | 59 | 314 | 2.0 | 2.0 | 0.00 | 0.31 | 0.31 | 83 | 1007.9 |
| 20260509162222 | 59 | 225 | 5.0 | 6.0 | 0.00 | 0.31 | 0.31 | 83 | 1007.8 |
| 20260509161718 | 59 | 336 | 3.0 | 3.0 | 0.00 | 0.31 | 0.31 | 83 | 1007.8 |
| 20260509161215 | 58 | 298 | 1.0 | 2.0 | 0.00 | 0.31 | 0.31 | 85 | 1007.9 |
| 20260509160709 | 58 | 313 | 0.0 | 1.0 | 0.00 | 0.31 | 0.31 | 86 | 1007.9 |
| 20260509160206 | 58 | 57 | 4.0 | 5.0 | 0.00 | 0.31 | 0.31 | 86 | 1007.7 |
| 20260509155701 | 57 | 344 | 1.0 | 2.0 | 0.00 | 0.31 | 0.31 | 88 | 1007.7 |
| 20260509155158 | 56 | 298 | 2.0 | 2.0 | 0.00 | 0.31 | 0.31 | 89 | 1007.8 |
| 20260509154654 | 56 | 354 | 1.0 | 1.0 | 0.00 | 0.31 | 0.31 | 89 | 1007.8 |
| 20260509154151 | 56 | 336 | 1.0 | 1.0 | 0.00 | 0.31 | 0.31 | 89 | 1007.7 |
| 20260509153648 | 56 | 298 | 3.0 | 5.0 | 0.00 | 0.31 | 0.31 | 89 | 1007.7 |
| 20260509153145 | 55 | 313 | 1.0 | 1.0 | 0.00 | 0.31 | 0.31 | 90 | 1007.6 |
| 20260509152640 | 55 | 307 | 1.0 | 1.0 | 0.00 | 0.31 | 0.31 | 90 | 1007.5 |
| 20260509152138 | 55 | 284 | 1.0 | 1.0 | 0.00 | 0.31 | 0.31 | 90 | 1007.5 |
| 20260509151634 | 55 | 336 | 2.0 | 3.0 | 0.00 | 0.31 | 0.31 | 91 | 1007.7 |
| 20260509151132 | 55 | 205 | 5.0 | 7.0 | 0.00 | 0.31 | 0.31 | 92 | 1007.5 |
| 20260509150630 | 55 | 358 | 0.0 | 0.0 | 0.00 | 0.31 | 0.31 | 93 | 1007.8 |
| 20260509150128 | 55 | 214 | 3.0 | 3.0 | 0.00 | 0.31 | 0.31 | 94 | 1007.8 |
| 20260509145624 | 54 | 207 | 2.0 | 5.0 | 0.00 | 0.31 | 0.31 | 94 | 1007.8 |
| 20260509145119 | 54 | 203 | 1.0 | 2.0 | 0.00 | 0.31 | 0.31 | 96 | 1007.6 |
| 20260509144616 | 53 | 268 | 2.0 | 2.0 | 0.00 | 0.31 | 0.31 | 96 | 1007.7 |
| 20260509144113 | 53 | 338 | 0.0 | 1.0 | 0.00 | 0.31 | 0.31 | 96 | 1007.9 |
| 20260509143610 | 53 | 343 | 0.0 | 0.0 | 0.00 | 0.31 | 0.31 | 97 | 1007.7 |
| 20260509143108 | 52 | 306 | 2.0 | 2.0 | 0.00 | 0.31 | 0.31 | 96 | 1007.9 |
| 20260509142602 | 52 | 197 | 2.0 | 3.0 | 0.00 | 0.31 | 0.31 | 97 | 1007.9 |
| 20260509142059 | 52 | 216 | 2.0 | 2.0 | 0.00 | 0.31 | 0.31 | 97 | 1007.7 |
| 20260509141555 | 52 | 130 | 1.0 | 2.0 | 0.00 | 0.31 | 0.31 | 97 | 1007.8 |
| 20260509141052 | 52 | 222 | 1.0 | 1.0 | 0.00 | 0.31 | 0.31 | 97 | 1008.0 |
| 20260509140549 | 52 | 214 | 2.0 | 2.0 | 0.00 | 0.31 | 0.31 | 97 | 1007.8 |
| 20260509140047 | 52 | 356 | 1.0 | 2.0 | 0.00 | 0.31 | 0.31 | 97 | 1007.9 |
| 20260509135543 | 52 | 5 | 1.0 | 1.0 | 0.00 | 0.31 | 0.31 | 97 | 1008.0 |
| 20260509135041 | 52 | 358 | 1.0 | 2.0 | 0.00 | 0.31 | 0.31 | 97 | 1007.9 |
| 20260509134538 | 52 | 270 | 2.0 | 2.0 | 0.00 | 0.31 | 0.31 | 96 | 1008.1 |
| 20260509134035 | 52 | 290 | 1.0 | 1.0 | 0.00 | 0.31 | 0.31 | 97 | 1007.7 |
| 20260509133532 | 52 | 335 | 0.0 | 1.0 | 0.00 | 0.31 | 0.31 | 97 | 1007.8 |
| 20260509133030 | 51 | 237 | 1.0 | 2.0 | 0.00 | 0.31 | 0.31 | 96 | 1008.0 |
| 20260509132528 | 51 | 50 | 2.0 | 3.0 | 0.00 | 0.31 | 0.31 | 96 | 1008.1 |
| 20260509132026 | 51 | 239 | 1.0 | 1.0 | 0.00 | 0.31 | 0.31 | 96 | 1008.0 |
| 20260509131516 | 51 | 17 | 1.0 | 2.0 | 0.00 | 0.31 | 0.31 | 96 | 1008.0 |
| 20260509131013 | 51 | 98 | 2.0 | 3.0 | 0.00 | 0.31 | 0.31 | 96 | 1008.0 |
| 20260509130508 | 51 | 345 | 0.0 | 1.0 | 0.00 | 0.31 | 0.31 | 96 | 1008.2 |
| 20260509130006 | 51 | 322 | 1.0 | 2.0 | 0.00 | 0.31 | 0.31 | 96 | 1008.1 |
| 20260509125502 | 51 | 337 | 1.0 | 2.0 | 0.00 | 0.31 | 0.31 | 96 | 1008.0 |
| 20260509124958 | 51 | 300 | 1.0 | 1.0 | 0.00 | 0.31 | 0.31 | 96 | 1007.8 |
| 20260509124455 | 51 | 346 | 0.0 | 0.0 | 0.00 | 0.31 | 0.31 | 96 | 1007.9 |
| 20260509123952 | 51 | 342 | 3.0 | 5.0 | 0.00 | 0.31 | 0.31 | 96 | 1007.8 |
| 20260509123450 | 51 | 256 | 1.0 | 1.0 | 0.00 | 0.31 | 0.31 | 97 | 1008.0 |
| 20260509122945 | 51 | 348 | 0.0 | 1.0 | 0.00 | 0.31 | 0.31 | 97 | 1008.0 |
| 20260509122443 | 51 | 308 | 1.0 | 1.0 | 0.00 | 0.31 | 0.31 | 97 | 1008.3 |
| 20260509121939 | 51 | 169 | 2.0 | 2.0 | 0.00 | 0.31 | 0.31 | 97 | 1008.1 |
| 20260509121436 | 51 | 335 | 1.0 | 2.0 | 0.00 | 0.31 | 0.31 | 97 | 1008.1 |
| 20260509120934 | 50 | 258 | 1.0 | 1.0 | 0.00 | 0.31 | 0.31 | 97 | 1008.1 |
| 20260509120432 | 50 | 181 | 2.0 | 2.0 | 0.00 | 0.31 | 0.31 | 97 | 1008.1 |
| 20260509115930 | 50 | 74 | 0.0 | 1.0 | 0.00 | 0.31 | 0.31 | 97 | 1008.1 |
| 20260509115427 | 50 | 170 | 2.0 | 2.0 | 0.00 | 0.31 | 0.31 | 97 | 1008.3 |
| 20260509114924 | 50 | 341 | 1.0 | 2.0 | 0.00 | 0.31 | 0.31 | 97 | 1008.1 |
| 20260509114423 | 50 | 270 | 0.0 | 1.0 | 0.00 | 0.31 | 0.31 | 97 | 1008.2 |
| 20260509113922 | 50 | 160 | 2.0 | 2.0 | 0.00 | 0.31 | 0.31 | 97 | 1008.1 |
| 20260509113419 | 50 | 248 | 1.0 | 1.0 | 0.00 | 0.31 | 0.31 | 97 | 1007.9 |
| 20260509112916 | 50 | 354 | 0.0 | 0.0 | 0.00 | 0.31 | 0.31 | 96 | 1008.1 |
| 20260509112413 | 50 | 256 | 1.0 | 1.0 | 0.00 | 0.31 | 0.31 | 97 | 1007.9 |
| 20260509111910 | 50 | 95 | 1.0 | 1.0 | 0.00 | 0.31 | 0.31 | 97 | 1007.9 |
| 20260509111407 | 50 | 197 | 1.0 | 1.0 | 0.00 | 0.31 | 0.31 | 97 | 1007.9 |
| 20260509110904 | 50 | 152 | 2.0 | 3.0 | 0.00 | 0.31 | 0.31 | 97 | 1007.8 |
| 20260509110400 | 50 | 137 | 3.0 | 3.0 | 0.00 | 0.31 | 0.31 | 97 | 1007.9 |
| 20260509105859 | 50 | 287 | 1.0 | 1.0 | 0.00 | 0.31 | 0.31 | 97 | 1007.9 |
| 20260509105356 | 50 | 160 | 3.0 | 3.0 | 0.00 | 0.31 | 0.31 | 97 | 1007.8 |
| 20260509104853 | 50 | 195 | 3.0 | 5.0 | 0.00 | 0.31 | 0.31 | 97 | 1007.9 |
| 20260509104349 | 50 | 155 | 2.0 | 2.0 | 0.05 | 0.31 | 0.31 | 97 | 1008.0 |
| 20260509103847 | 50 | 150 | 3.0 | 5.0 | 0.05 | 0.31 | 0.31 | 97 | 1008.1 |
| 20260509103344 | 50 | 220 | 2.0 | 2.0 | 0.00 | 0.30 | 0.30 | 97 | 1007.9 |
| 20260509102843 | 50 | 156 | 2.0 | 2.0 | 0.00 | 0.30 | 0.30 | 97 | 1007.9 |
| 20260509102340 | 49 | 183 | 2.0 | 2.0 | 0.00 | 0.30 | 0.30 | 97 | 1007.8 |
| 20260509101835 | 49 | 12 | 0.0 | 0.0 | 0.00 | 0.30 | 0.30 | 97 | 1008.0 |
| 20260509101326 | 49 | 9 | 0.0 | 1.0 | 0.00 | 0.30 | 0.30 | 97 | 1007.9 |
| 20260509100824 | 49 | 153 | 1.0 | 2.0 | 0.00 | 0.30 | 0.30 | 97 | 1007.9 |
| 20260509100321 | 49 | 48 | 1.0 | 1.0 | 0.00 | 0.30 | 0.30 | 97 | 1008.0 |
| 20260509095817 | 49 | 132 | 3.0 | 3.0 | 0.00 | 0.30 | 0.30 | 97 | 1008.0 |
| 20260509095315 | 49 | 55 | 1.0 | 1.0 | 0.00 | 0.30 | 0.30 | 97 | 1008.2 |
| 20260509094812 | 49 | 31 | 1.0 | 1.0 | 0.07 | 0.30 | 0.30 | 97 | 1008.1 |
| 20260509094309 | 49 | 148 | 1.0 | 2.0 | 0.07 | 0.30 | 0.30 | 97 | 1008.1 |
| 20260509093806 | 49 | 147 | 1.0 | 2.0 | 0.12 | 0.29 | 0.29 | 97 | 1008.1 |
| 20260509093303 | 49 | 124 | 2.0 | 2.0 | 0.19 | 0.29 | 0.29 | 97 | 1008.2 |
| 20260509092802 | 49 | 158 | 2.0 | 3.0 | 0.19 | 0.28 | 0.28 | 97 | 1008.3 |
| 20260509092259 | 49 | 143 | 2.0 | 2.0 | 0.12 | 0.26 | 0.26 | 97 | 1008.7 |
| 20260509091757 | 49 | 172 | 2.0 | 2.0 | 0.12 | 0.25 | 0.25 | 97 | 1008.5 |
| 20260509091254 | 49 | 146 | 1.0 | 2.0 | 0.12 | 0.24 | 0.24 | 97 | 1008.8 |
| 20260509090751 | 49 | 5 | 1.0 | 1.0 | 0.12 | 0.23 | 0.23 | 97 | 1008.5 |
| 20260509090248 | 49 | 19 | 0.0 | 1.0 | 0.05 | 0.22 | 0.22 | 97 | 1008.5 |
| 20260509085745 | 49 | 152 | 2.0 | 2.0 | 0.07 | 0.21 | 0.21 | 97 | 1008.7 |
| 20260509085243 | 49 | 66 | 1.0 | 1.0 | 0.07 | 0.21 | 0.21 | 97 | 1008.6 |
| 20260509084739 | 49 | 105 | 2.0 | 2.0 | 0.05 | 0.20 | 0.20 | 97 | 1008.6 |
| 20260509084236 | 49 | 153 | 2.0 | 2.0 | 0.05 | 0.20 | 0.20 | 97 | 1008.8 |
| 20260509083734 | 49 | 156 | 1.0 | 1.0 | 0.00 | 0.19 | 0.19 | 97 | 1008.7 |
| 20260509083231 | 49 | 68 | 2.0 | 2.0 | 0.07 | 0.19 | 0.19 | 97 | 1008.9 |
| 20260509082727 | 49 | 165 | 3.0 | 3.0 | 0.07 | 0.19 | 0.19 | 97 | 1008.9 |
| 20260509082224 | 49 | 125 | 1.0 | 2.0 | 0.05 | 0.18 | 0.18 | 97 | 1008.9 |
| 20260509081721 | 49 | 169 | 2.0 | 2.0 | 0.05 | 0.18 | 0.18 | 97 | 1008.9 |
| 20260509081218 | 49 | 157 | 2.0 | 3.0 | 0.07 | 0.17 | 0.17 | 97 | 1009.0 |
| 20260509080716 | 49 | 109 | 1.0 | 1.0 | 0.07 | 0.17 | 0.17 | 97 | 1009.1 |
| 20260509080214 | 49 | 142 | 2.0 | 2.0 | 0.07 | 0.17 | 0.17 | 97 | 1009.1 |
| 20260509075712 | 49 | 357 | 0.0 | 0.0 | 0.05 | 0.16 | 0.16 | 97 | 1009.1 |
| 20260509075209 | 49 | 21 | 0.0 | 0.0 | 0.12 | 0.16 | 0.16 | 97 | 1009.1 |
| 20260509074705 | 49 | 124 | 2.0 | 2.0 | 0.07 | 0.15 | 0.15 | 97 | 1009.0 |
| 20260509074202 | 49 | 128 | 3.0 | 5.0 | 0.14 | 0.15 | 0.15 | 96 | 1009.0 |
| 20260509073653 | 49 | 43 | 1.0 | 1.0 | 0.12 | 0.14 | 0.14 | 97 | 1009.0 |
| 20260509073149 | 49 | 142 | 2.0 | 2.0 | 0.05 | 0.13 | 0.13 | 96 | 1008.9 |
| 20260509072647 | 49 | 152 | 2.0 | 2.0 | 0.07 | 0.12 | 0.12 | 96 | 1009.0 |
| 20260509072143 | 48 | 200 | 1.0 | 2.0 | 0.12 | 0.12 | 0.12 | 96 | 1009.0 |
| 20260509071640 | 48 | 170 | 2.0 | 3.0 | 0.12 | 0.11 | 0.11 | 96 | 1008.8 |
| 20260509071137 | 48 | 179 | 2.0 | 3.0 | 0.19 | 0.10 | 0.10 | 96 | 1009.0 |
| 20260509070634 | 48 | 86 | 2.0 | 2.0 | 0.17 | 0.09 | 0.09 | 96 | 1008.9 |
| 20260509070130 | 49 | 146 | 2.0 | 2.0 | 0.12 | 0.08 | 0.08 | 96 | 1008.8 |
| 20260509065625 | 49 | 126 | 2.0 | 2.0 | 0.12 | 0.06 | 0.06 | 96 | 1009.1 |
| 20260509065116 | 49 | 113 | 1.0 | 1.0 | 0.12 | 0.06 | 0.06 | 95 | 1009.1 |
| 20260509064614 | 49 | 2 | 0.0 | 1.0 | 0.12 | 0.05 | 0.05 | 95 | 1009.2 |
| 20260509064112 | 49 | 95 | 1.0 | 1.0 | 0.07 | 0.04 | 0.04 | 95 | 1009.0 |
| 20260509063608 | 49 | 298 | 0.0 | 1.0 | 0.00 | 0.03 | 0.03 | 95 | 1009.2 |
| 20260509063105 | 49 | 96 | 2.0 | 2.0 | 0.00 | 0.03 | 0.03 | 95 | 1009.0 |
| 20260509062602 | 49 | 130 | 2.0 | 2.0 | 0.00 | 0.03 | 0.03 | 95 | 1009.2 |
| 20260509062059 | 49 | 117 | 2.0 | 2.0 | 0.00 | 0.03 | 0.03 | 95 | 1009.0 |
| 20260509061556 | 48 | 101 | 2.0 | 2.0 | 0.00 | 0.03 | 0.03 | 95 | 1009.3 |
| 20260509061053 | 48 | 127 | 2.0 | 2.0 | 0.00 | 0.03 | 0.03 | 96 | 1009.3 |
| 20260509060551 | 49 | 100 | 2.0 | 2.0 | 0.00 | 0.03 | 0.03 | 96 | 1009.4 |
| 20260509060046 | 48 | 103 | 2.0 | 2.0 | 0.00 | 0.03 | 0.03 | 96 | 1009.3 |
| 20260509055542 | 49 | 101 | 2.0 | 2.0 | 0.00 | 0.03 | 0.03 | 96 | 1009.4 |
| 20260509055038 | 49 | 90 | 1.0 | 1.0 | 0.00 | 0.03 | 0.03 | 96 | 1009.5 |
| 20260509054535 | 49 | 77 | 1.0 | 1.0 | 0.00 | 0.03 | 0.03 | 96 | 1009.5 |
| 20260509054033 | 49 | 143 | 3.0 | 3.0 | 0.05 | 0.03 | 0.03 | 95 | 1009.5 |
| 20260509053532 | 49 | 115 | 3.0 | 3.0 | 0.05 | 0.03 | 0.03 | 95 | 1009.6 |
| 20260509053028 | 49 | 55 | 2.0 | 2.0 | 0.00 | 0.02 | 0.02 | 95 | 1009.7 |
| 20260509052526 | 49 | 141 | 3.0 | 3.0 | 0.00 | 0.02 | 0.02 | 95 | 1009.8 |
| 20260509052024 | 49 | 119 | 2.0 | 2.0 | 0.00 | 0.02 | 0.02 | 95 | 1009.9 |
| 20260509051521 | 49 | 57 | 1.0 | 1.0 | 0.00 | 0.02 | 0.02 | 95 | 1010.0 |
| 20260509051018 | 49 | 35 | 1.0 | 1.0 | 0.00 | 0.02 | 0.02 | 95 | 1010.0 |
| 20260509050515 | 49 | 156 | 2.0 | 3.0 | 0.00 | 0.02 | 0.02 | 95 | 1009.9 |
| 20260509050011 | 49 | 16 | 0.0 | 0.0 | 0.07 | 0.02 | 0.02 | 95 | 1010.1 |
| 20260509045508 | 49 | 78 | 3.0 | 3.0 | 0.07 | 0.02 | 0.02 | 95 | 1010.0 |
| 20260509045005 | 49 | 122 | 2.0 | 3.0 | 0.00 | 0.01 | 0.01 | 95 | 1010.3 |
| 20260509044503 | 49 | 130 | 2.0 | 2.0 | 0.00 | 0.01 | 0.01 | 95 | 1010.0 |
| 20260509044000 | 49 | 76 | 2.0 | 2.0 | 0.00 | 0.01 | 0.01 | 95 | 1010.3 |
| 20260509043455 | 49 | 47 | 3.0 | 3.0 | 0.00 | 0.01 | 0.01 | 95 | 1010.3 |
| 20260509042951 | 49 | 155 | 1.0 | 1.0 | 0.07 | 0.01 | 0.01 | 95 | 1010.3 |
| 20260509042448 | 49 | 5 | 0.0 | 0.0 | 0.07 | 0.01 | 0.01 | 95 | 1010.4 |
| 20260509041944 | 49 | 106 | 1.0 | 1.0 | 0.00 | 0.00 | 0.00 | 95 | 1010.5 |
| 20260509041441 | 49 | 92 | 1.0 | 2.0 | 0.00 | 0.00 | 0.00 | 95 | 1010.4 |
| 20260509040939 | 49 | 46 | 1.0 | 1.0 | 0.00 | 0.00 | 0.00 | 94 | 1010.6 |
| 20260509040437 | 49 | 49 | 1.0 | 1.0 | 0.00 | 0.00 | 0.00 | 94 | 1010.5 |
| 20260509035933 | 49 | 15 | 0.0 | 1.0 | 0.00 | 0.12 | 0.12 | 94 | 1010.6 |
| 20260509035430 | 49 | 100 | 1.0 | 1.0 | 0.05 | 0.12 | 0.12 | 94 | 1010.6 |
| 20260509034927 | 49 | 124 | 2.0 | 3.0 | 0.05 | 0.12 | 0.12 | 94 | 1010.7 |
| 20260509034425 | 49 | 125 | 2.0 | 3.0 | 0.05 | 0.12 | 0.12 | 94 | 1011.0 |
| 20260509033922 | 49 | 74 | 1.0 | 2.0 | 0.00 | 0.11 | 0.11 | 94 | 1011.1 |
| 20260509033419 | 49 | 121 | 3.0 | 3.0 | 0.00 | 0.11 | 0.11 | 94 | 1011.2 |
| 20260509032915 | 49 | 91 | 3.0 | 3.0 | 0.00 | 0.11 | 0.11 | 94 | 1011.0 |
| 20260509032413 | 49 | 120 | 2.0 | 2.0 | 0.00 | 0.11 | 0.11 | 94 | 1011.4 |
| 20260509031911 | 49 | 124 | 3.0 | 5.0 | 0.00 | 0.11 | 0.11 | 94 | 1011.3 |
| 20260509031408 | 49 | 93 | 1.0 | 2.0 | 0.00 | 0.11 | 0.11 | 94 | 1011.0 |
| 20260509030905 | 49 | 28 | 1.0 | 1.0 | 0.07 | 0.11 | 0.11 | 93 | 1011.3 |
| 20260509030403 | 49 | 114 | 1.0 | 2.0 | 0.07 | 0.11 | 0.11 | 93 | 1011.3 |
| 20260509025900 | 49 | 111 | 2.0 | 2.0 | 0.00 | 0.10 | 0.10 | 93 | 1011.5 |
| 20260509025355 | 49 | 115 | 2.0 | 2.0 | 0.00 | 0.10 | 0.10 | 93 | 1011.4 |
| 20260509024850 | 49 | 113 | 2.0 | 3.0 | 0.00 | 0.10 | 0.10 | 94 | 1011.3 |
| 20260509024347 | 50 | 349 | 1.0 | 1.0 | 0.05 | 0.10 | 0.10 | 94 | 1011.4 |
| 20260509023844 | 50 | 314 | 1.0 | 1.0 | 0.05 | 0.10 | 0.10 | 94 | 1011.4 |
| 20260509023341 | 50 | 134 | 4.0 | 5.0 | 0.00 | 0.09 | 0.09 | 94 | 1011.4 |
| 20260509022833 | 50 | 115 | 2.0 | 2.0 | 0.00 | 0.09 | 0.09 | 95 | 1011.3 |
| 20260509022330 | 50 | 126 | 3.0 | 3.0 | 0.00 | 0.09 | 0.09 | 95 | 1011.4 |
| 20260509021827 | 50 | 76 | 1.0 | 2.0 | 0.00 | 0.09 | 0.09 | 95 | 1011.4 |
| 20260509021323 | 50 | 66 | 1.0 | 1.0 | 0.07 | 0.09 | 0.09 | 95 | 1011.5 |